sensor_id;sensor_type;location;lat;lon;timestamp;temperature;humidity
12893;DHT22;6514;48.606;9.222;2022-10-16T00:02:15;14.60;99.90
12893;DHT22;6514;48.606;9.222;2022-10-16T00:04:42;14.60;99.90
12893;DHT22;6514;48.606;9.222;2022-10-16T00:07:09;14.60;99.90
12893;DHT22;6514;48.606;9.222;2022-10-16T00:09:36;14.60;99.90
12893;DHT22;6514;48.606;9.222;2022-10-16T00:12:03;14.60;99.90
12893;DHT22;6514;48.606;9.222;2022-10-16T00:14:33;14.60;99.90
12893;DHT22;6514;48.606;9.222;2022-10-16T00:17:00;14.60;99.90
12893;DHT22;6514;48.606;9.222;2022-10-16T00:19:27;14.60;99.90
12893;DHT22;6514;48.606;9.222;2022-10-16T00:21:54;14.60;99.90
12893;DHT22;6514;48.606;9.222;2022-10-16T00:24:21;14.60;99.90
12893;DHT22;6514;48.606;9.222;2022-10-16T00:26:50;14.50;99.90
12893;DHT22;6514;48.606;9.222;2022-10-16T00:29:17;14.50;99.90
12893;DHT22;6514;48.606;9.222;2022-10-16T00:31:45;14.40;99.90
12893;DHT22;6514;48.606;9.222;2022-10-16T00:34:12;14.40;99.90
12893;DHT22;6514;48.606;9.222;2022-10-16T00:36:39;14.40;99.90
12893;DHT22;6514;48.606;9.222;2022-10-16T00:39:06;14.30;99.90
12893;DHT22;6514;48.606;9.222;2022-10-16T00:41:33;14.30;99.90
12893;DHT22;6514;48.606;9.222;2022-10-16T00:44:02;14.30;99.90
12893;DHT22;6514;48.606;9.222;2022-10-16T00:46:33;14.30;99.90
12893;DHT22;6514;48.606;9.222;2022-10-16T00:49:06;14.20;99.90
12893;DHT22;6514;48.606;9.222;2022-10-16T00:51:36;14.20;99.90
12893;DHT22;6514;48.606;9.222;2022-10-16T00:54:08;14.20;99.90
12893;DHT22;6514;48.606;9.222;2022-10-16T00:56:37;14.10;99.90
12893;DHT22;6514;48.606;9.222;2022-10-16T00:59:07;14.10;99.90
12893;DHT22;6514;48.606;9.222;2022-10-16T01:01:37;14.10;99.90
12893;DHT22;6514;48.606;9.222;2022-10-16T01:04:05;14.10;99.90
12893;DHT22;6514;48.606;9.222;2022-10-16T01:06:37;14.10;99.90
12893;DHT22;6514;48.606;9.222;2022-10-16T01:09:13;14.10;99.90
12893;DHT22;6514;48.606;9.222;2022-10-16T01:11:45;14.10;99.90
12893;DHT22;6514;48.606;9.222;2022-10-16T01:14:21;14.10;99.90
12893;DHT22;6514;48.606;9.222;2022-10-16T01:16:53;14.10;99.90
12893;DHT22;6514;48.606;9.222;2022-10-16T01:19:32;14.00;99.90
12893;DHT22;6514;48.606;9.222;2022-10-16T01:22:03;14.10;99.90
12893;DHT22;6514;48.606;9.222;2022-10-16T01:24:35;14.10;99.90
12893;DHT22;6514;48.606;9.222;2022-10-16T01:27:11;14.10;99.90
12893;DHT22;6514;48.606;9.222;2022-10-16T01:29:43;14.10;99.90
12893;DHT22;6514;48.606;9.222;2022-10-16T01:32:16;14.20;99.90
12893;DHT22;6514;48.606;9.222;2022-10-16T01:34:49;14.20;99.90
12893;DHT22;6514;48.606;9.222;2022-10-16T01:37:24;14.20;99.90
12893;DHT22;6514;48.606;9.222;2022-10-16T01:39:56;14.20;99.90
12893;DHT22;6514;48.606;9.222;2022-10-16T01:42:30;14.10;99.90
12893;DHT22;6514;48.606;9.222;2022-10-16T01:45:00;14.10;99.90
12893;DHT22;6514;48.606;9.222;2022-10-16T01:47:30;14.00;99.90
12893;DHT22;6514;48.606;9.222;2022-10-16T01:49:59;14.00;99.90
12893;DHT22;6514;48.606;9.222;2022-10-16T01:52:32;14.00;99.90
12893;DHT22;6514;48.606;9.222;2022-10-16T01:55:02;14.00;99.90
12893;DHT22;6514;48.606;9.222;2022-10-16T01:57:33;14.00;99.90
12893;DHT22;6514;48.606;9.222;2022-10-16T02:00:04;14.00;99.90
12893;DHT22;6514;48.606;9.222;2022-10-16T02:02:32;14.10;99.90
12893;DHT22;6514;48.606;9.222;2022-10-16T02:05:05;14.10;99.90
12893;DHT22;6514;48.606;9.222;2022-10-16T02:07:33;14.10;99.90
12893;DHT22;6514;48.606;9.222;2022-10-16T02:10:01;14.10;99.90
12893;DHT22;6514;48.606;9.222;2022-10-16T02:12:31;14.10;99.90
12893;DHT22;6514;48.606;9.222;2022-10-16T02:14:59;14.10;99.90
12893;DHT22;6514;48.606;9.222;2022-10-16T02:17:27;14.10;99.90
12893;DHT22;6514;48.606;9.222;2022-10-16T02:19:55;14.20;99.90
12893;DHT22;6514;48.606;9.222;2022-10-16T02:22:27;14.20;99.90
12893;DHT22;6514;48.606;9.222;2022-10-16T02:24:57;14.20;99.90
12893;DHT22;6514;48.606;9.222;2022-10-16T02:27:29;14.20;99.90
12893;DHT22;6514;48.606;9.222;2022-10-16T02:30:03;14.20;99.90
12893;DHT22;6514;48.606;9.222;2022-10-16T02:32:34;14.20;99.90
12893;DHT22;6514;48.606;9.222;2022-10-16T02:35:03;14.20;99.90
12893;DHT22;6514;48.606;9.222;2022-10-16T02:37:31;14.20;99.90
12893;DHT22;6514;48.606;9.222;2022-10-16T02:39:58;14.20;99.90
12893;DHT22;6514;48.606;9.222;2022-10-16T02:42:33;14.40;99.90
12893;DHT22;6514;48.606;9.222;2022-10-16T02:45:01;14.20;99.90
12893;DHT22;6514;48.606;9.222;2022-10-16T02:47:29;14.20;99.90
12893;DHT22;6514;48.606;9.222;2022-10-16T02:49:56;14.20;99.90
12893;DHT22;6514;48.606;9.222;2022-10-16T02:52:23;14.20;99.90
12893;DHT22;6514;48.606;9.222;2022-10-16T02:54:50;14.20;99.90
12893;DHT22;6514;48.606;9.222;2022-10-16T02:57:17;14.20;99.90
12893;DHT22;6514;48.606;9.222;2022-10-16T02:59:44;14.20;99.90
12893;DHT22;6514;48.606;9.222;2022-10-16T03:02:12;14.20;99.90
12893;DHT22;6514;48.606;9.222;2022-10-16T03:04:39;14.10;99.90
12893;DHT22;6514;48.606;9.222;2022-10-16T03:07:06;14.10;99.90
12893;DHT22;6514;48.606;9.222;2022-10-16T03:09:33;14.10;99.90
12893;DHT22;6514;48.606;9.222;2022-10-16T03:11:59;14.10;99.90
12893;DHT22;6514;48.606;9.222;2022-10-16T03:14:26;14.10;99.90
12893;DHT22;6514;48.606;9.222;2022-10-16T03:16:53;14.00;99.90
12893;DHT22;6514;48.606;9.222;2022-10-16T03:19:21;14.00;99.90
12893;DHT22;6514;48.606;9.222;2022-10-16T03:21:48;14.00;99.90
12893;DHT22;6514;48.606;9.222;2022-10-16T03:24:15;13.90;99.90
12893;DHT22;6514;48.606;9.222;2022-10-16T03:26:42;13.90;99.90
12893;DHT22;6514;48.606;9.222;2022-10-16T03:29:09;13.90;99.90
12893;DHT22;6514;48.606;9.222;2022-10-16T03:31:36;13.90;99.90
12893;DHT22;6514;48.606;9.222;2022-10-16T03:34:03;13.90;99.90
12893;DHT22;6514;48.606;9.222;2022-10-16T03:36:31;13.90;99.90
12893;DHT22;6514;48.606;9.222;2022-10-16T03:38:58;13.90;99.90
12893;DHT22;6514;48.606;9.222;2022-10-16T03:41:25;13.90;99.90
12893;DHT22;6514;48.606;9.222;2022-10-16T03:43:52;13.90;99.90
12893;DHT22;6514;48.606;9.222;2022-10-16T03:46:19;13.80;99.90
12893;DHT22;6514;48.606;9.222;2022-10-16T03:48:46;13.90;99.90
12893;DHT22;6514;48.606;9.222;2022-10-16T03:51:13;13.90;99.90
12893;DHT22;6514;48.606;9.222;2022-10-16T03:53:41;13.90;99.90
12893;DHT22;6514;48.606;9.222;2022-10-16T03:56:08;13.90;99.90
12893;DHT22;6514;48.606;9.222;2022-10-16T03:58:35;13.90;99.90
12893;DHT22;6514;48.606;9.222;2022-10-16T04:01:02;13.90;99.90
12893;DHT22;6514;48.606;9.222;2022-10-16T04:03:29;13.80;99.90
12893;DHT22;6514;48.606;9.222;2022-10-16T04:05:56;13.90;99.90
12893;DHT22;6514;48.606;9.222;2022-10-16T04:08:23;13.90;99.90
12893;DHT22;6514;48.606;9.222;2022-10-16T04:10:51;13.90;99.90
12893;DHT22;6514;48.606;9.222;2022-10-16T04:13:18;13.90;99.90
12893;DHT22;6514;48.606;9.222;2022-10-16T04:15:45;13.90;99.90
12893;DHT22;6514;48.606;9.222;2022-10-16T04:18:12;13.80;99.90
12893;DHT22;6514;48.606;9.222;2022-10-16T04:20:40;13.80;99.90
12893;DHT22;6514;48.606;9.222;2022-10-16T04:23:07;13.80;99.90
12893;DHT22;6514;48.606;9.222;2022-10-16T04:25:34;13.80;99.90
12893;DHT22;6514;48.606;9.222;2022-10-16T04:28:02;13.70;99.90
12893;DHT22;6514;48.606;9.222;2022-10-16T04:30:29;13.70;99.90
12893;DHT22;6514;48.606;9.222;2022-10-16T04:32:56;13.70;99.90
12893;DHT22;6514;48.606;9.222;2022-10-16T04:35:23;13.70;99.90
12893;DHT22;6514;48.606;9.222;2022-10-16T04:37:50;13.70;99.90
12893;DHT22;6514;48.606;9.222;2022-10-16T04:40:17;13.70;99.90
12893;DHT22;6514;48.606;9.222;2022-10-16T04:42:44;13.70;99.90
12893;DHT22;6514;48.606;9.222;2022-10-16T04:45:12;13.70;99.90
12893;DHT22;6514;48.606;9.222;2022-10-16T04:47:39;13.70;99.90
12893;DHT22;6514;48.606;9.222;2022-10-16T04:50:07;13.70;99.90
12893;DHT22;6514;48.606;9.222;2022-10-16T04:52:34;13.70;99.90
12893;DHT22;6514;48.606;9.222;2022-10-16T04:55:01;13.70;99.90
12893;DHT22;6514;48.606;9.222;2022-10-16T04:57:28;13.70;99.90
12893;DHT22;6514;48.606;9.222;2022-10-16T04:59:55;13.70;99.90
12893;DHT22;6514;48.606;9.222;2022-10-16T05:02:24;13.70;99.90
12893;DHT22;6514;48.606;9.222;2022-10-16T05:04:51;13.70;99.90
12893;DHT22;6514;48.606;9.222;2022-10-16T05:07:18;13.70;99.90
12893;DHT22;6514;48.606;9.222;2022-10-16T05:09:45;13.70;99.90
12893;DHT22;6514;48.606;9.222;2022-10-16T05:12:12;13.70;99.90
12893;DHT22;6514;48.606;9.222;2022-10-16T05:14:39;13.60;99.90
12893;DHT22;6514;48.606;9.222;2022-10-16T05:17:06;13.60;99.90
12893;DHT22;6514;48.606;9.222;2022-10-16T05:19:34;13.60;99.90
12893;DHT22;6514;48.606;9.222;2022-10-16T05:22:01;13.70;99.90
12893;DHT22;6514;48.606;9.222;2022-10-16T05:24:28;13.70;99.90
12893;DHT22;6514;48.606;9.222;2022-10-16T05:26:55;13.70;99.90
12893;DHT22;6514;48.606;9.222;2022-10-16T05:29:22;13.80;99.90
12893;DHT22;6514;48.606;9.222;2022-10-16T05:31:50;13.80;99.90
12893;DHT22;6514;48.606;9.222;2022-10-16T05:34:18;13.80;99.90
12893;DHT22;6514;48.606;9.222;2022-10-16T05:36:46;13.70;99.90
12893;DHT22;6514;48.606;9.222;2022-10-16T05:39:14;13.70;99.90
12893;DHT22;6514;48.606;9.222;2022-10-16T05:41:41;13.60;99.90
12893;DHT22;6514;48.606;9.222;2022-10-16T05:44:09;13.60;99.90
12893;DHT22;6514;48.606;9.222;2022-10-16T05:46:35;13.50;99.90
12893;DHT22;6514;48.606;9.222;2022-10-16T05:49:02;13.40;99.90
12893;DHT22;6514;48.606;9.222;2022-10-16T05:51:29;13.40;99.90
12893;DHT22;6514;48.606;9.222;2022-10-16T05:53:58;13.40;99.90
12893;DHT22;6514;48.606;9.222;2022-10-16T05:56:24;13.40;99.90
12893;DHT22;6514;48.606;9.222;2022-10-16T05:58:51;13.40;99.90
12893;DHT22;6514;48.606;9.222;2022-10-16T06:01:19;13.40;99.90
12893;DHT22;6514;48.606;9.222;2022-10-16T06:03:49;13.40;99.90
12893;DHT22;6514;48.606;9.222;2022-10-16T06:06:18;13.40;99.90
12893;DHT22;6514;48.606;9.222;2022-10-16T06:08:46;13.40;99.90
12893;DHT22;6514;48.606;9.222;2022-10-16T06:11:16;13.50;99.90
12893;DHT22;6514;48.606;9.222;2022-10-16T06:13:44;13.50;99.90
12893;DHT22;6514;48.606;9.222;2022-10-16T06:16:12;13.50;99.90
12893;DHT22;6514;48.606;9.222;2022-10-16T06:18:39;13.60;99.90
12893;DHT22;6514;48.606;9.222;2022-10-16T06:21:10;13.70;99.90
12893;DHT22;6514;48.606;9.222;2022-10-16T06:23:37;13.80;99.90
12893;DHT22;6514;48.606;9.222;2022-10-16T06:26:05;13.80;99.90
12893;DHT22;6514;48.606;9.222;2022-10-16T06:28:33;13.90;99.90
12893;DHT22;6514;48.606;9.222;2022-10-16T06:31:01;14.00;99.90
12893;DHT22;6514;48.606;9.222;2022-10-16T06:33:27;14.10;99.90
12893;DHT22;6514;48.606;9.222;2022-10-16T06:36:00;14.30;99.90
12893;DHT22;6514;48.606;9.222;2022-10-16T06:38:29;14.30;99.90
12893;DHT22;6514;48.606;9.222;2022-10-16T06:40:56;14.50;99.90
12893;DHT22;6514;48.606;9.222;2022-10-16T06:43:23;14.60;99.90
12893;DHT22;6514;48.606;9.222;2022-10-16T06:45:52;14.80;99.90
12893;DHT22;6514;48.606;9.222;2022-10-16T06:48:20;15.00;99.90
12893;DHT22;6514;48.606;9.222;2022-10-16T06:50:56;15.20;99.90
12893;DHT22;6514;48.606;9.222;2022-10-16T06:53:23;15.30;99.90
12893;DHT22;6514;48.606;9.222;2022-10-16T06:55:50;15.50;99.90
12893;DHT22;6514;48.606;9.222;2022-10-16T06:58:17;15.60;99.90
12893;DHT22;6514;48.606;9.222;2022-10-16T07:00:44;15.80;99.90
12893;DHT22;6514;48.606;9.222;2022-10-16T07:03:13;15.90;99.90
12893;DHT22;6514;48.606;9.222;2022-10-16T07:05:40;15.90;99.90
12893;DHT22;6514;48.606;9.222;2022-10-16T07:08:07;15.90;99.90
12893;DHT22;6514;48.606;9.222;2022-10-16T07:10:35;15.90;99.90
12893;DHT22;6514;48.606;9.222;2022-10-16T07:13:02;16.00;99.90
12893;DHT22;6514;48.606;9.222;2022-10-16T07:15:29;15.90;99.90
12893;DHT22;6514;48.606;9.222;2022-10-16T07:17:56;16.00;99.90
12893;DHT22;6514;48.606;9.222;2022-10-16T07:20:24;16.00;99.90
12893;DHT22;6514;48.606;9.222;2022-10-16T07:22:51;16.00;99.90
12893;DHT22;6514;48.606;9.222;2022-10-16T07:25:18;16.00;99.90
12893;DHT22;6514;48.606;9.222;2022-10-16T07:27:45;16.10;99.90
12893;DHT22;6514;48.606;9.222;2022-10-16T07:30:12;16.10;99.90
12893;DHT22;6514;48.606;9.222;2022-10-16T07:32:39;16.10;99.90
12893;DHT22;6514;48.606;9.222;2022-10-16T07:35:07;16.20;99.90
12893;DHT22;6514;48.606;9.222;2022-10-16T07:37:35;16.20;99.90
12893;DHT22;6514;48.606;9.222;2022-10-16T07:40:02;16.30;99.90
12893;DHT22;6514;48.606;9.222;2022-10-16T07:42:29;16.30;99.90
12893;DHT22;6514;48.606;9.222;2022-10-16T07:44:56;16.40;99.90
12893;DHT22;6514;48.606;9.222;2022-10-16T07:47:23;16.40;99.90
12893;DHT22;6514;48.606;9.222;2022-10-16T07:49:50;16.50;99.90
12893;DHT22;6514;48.606;9.222;2022-10-16T07:52:17;16.50;99.90
12893;DHT22;6514;48.606;9.222;2022-10-16T07:54:45;16.60;99.90
12893;DHT22;6514;48.606;9.222;2022-10-16T07:57:12;16.60;99.90
12893;DHT22;6514;48.606;9.222;2022-10-16T07:59:44;16.70;99.90
12893;DHT22;6514;48.606;9.222;2022-10-16T08:02:11;16.80;99.90
12893;DHT22;6514;48.606;9.222;2022-10-16T08:04:38;16.90;99.90
12893;DHT22;6514;48.606;9.222;2022-10-16T08:07:07;17.00;99.90
12893;DHT22;6514;48.606;9.222;2022-10-16T08:09:34;17.00;99.90
12893;DHT22;6514;48.606;9.222;2022-10-16T08:12:03;17.10;99.90
12893;DHT22;6514;48.606;9.222;2022-10-16T08:14:30;17.10;99.90
12893;DHT22;6514;48.606;9.222;2022-10-16T08:16:57;17.10;99.90
12893;DHT22;6514;48.606;9.222;2022-10-16T08:19:24;17.20;99.90
12893;DHT22;6514;48.606;9.222;2022-10-16T08:21:51;17.20;99.90
12893;DHT22;6514;48.606;9.222;2022-10-16T08:24:18;17.30;99.90
12893;DHT22;6514;48.606;9.222;2022-10-16T08:26:45;17.40;99.90
12893;DHT22;6514;48.606;9.222;2022-10-16T08:29:14;17.50;99.90
12893;DHT22;6514;48.606;9.222;2022-10-16T08:31:41;17.70;99.90
12893;DHT22;6514;48.606;9.222;2022-10-16T08:34:08;17.90;99.90
12893;DHT22;6514;48.606;9.222;2022-10-16T08:36:35;18.10;99.90
12893;DHT22;6514;48.606;9.222;2022-10-16T08:39:02;18.40;99.90
12893;DHT22;6514;48.606;9.222;2022-10-16T08:45:01;19.00;99.90
12893;DHT22;6514;48.606;9.222;2022-10-16T08:47:39;19.20;99.90
12893;DHT22;6514;48.606;9.222;2022-10-16T08:50:11;19.40;99.90
12893;DHT22;6514;48.606;9.222;2022-10-16T08:52:41;19.40;99.90
12893;DHT22;6514;48.606;9.222;2022-10-16T08:55:19;19.40;99.90
12893;DHT22;6514;48.606;9.222;2022-10-16T08:57:49;19.40;99.90
12893;DHT22;6514;48.606;9.222;2022-10-16T09:00:18;19.40;99.90
12893;DHT22;6514;48.606;9.222;2022-10-16T09:02:50;19.40;99.90
12893;DHT22;6514;48.606;9.222;2022-10-16T09:05:34;19.40;99.90
12893;DHT22;6514;48.606;9.222;2022-10-16T09:08:11;19.40;99.90
12893;DHT22;6514;48.606;9.222;2022-10-16T09:10:52;19.40;99.90
12893;DHT22;6514;48.606;9.222;2022-10-16T09:13:27;19.50;99.90
12893;DHT22;6514;48.606;9.222;2022-10-16T09:16:01;19.50;99.90
12893;DHT22;6514;48.606;9.222;2022-10-16T09:18:39;19.50;99.90
12893;DHT22;6514;48.606;9.222;2022-10-16T09:21:14;19.50;99.90
12893;DHT22;6514;48.606;9.222;2022-10-16T09:23:44;19.50;99.90
12893;DHT22;6514;48.606;9.222;2022-10-16T09:26:14;19.70;99.90
12893;DHT22;6514;48.606;9.222;2022-10-16T09:28:41;19.80;99.90
12893;DHT22;6514;48.606;9.222;2022-10-16T09:31:15;19.90;99.90
12893;DHT22;6514;48.606;9.222;2022-10-16T09:33:45;20.60;99.90
12893;DHT22;6514;48.606;9.222;2022-10-16T09:36:14;21.10;99.90
12893;DHT22;6514;48.606;9.222;2022-10-16T09:38:41;21.80;99.90
12893;DHT22;6514;48.606;9.222;2022-10-16T09:41:15;22.30;99.90
12893;DHT22;6514;48.606;9.222;2022-10-16T09:43:49;22.80;99.90
12893;DHT22;6514;48.606;9.222;2022-10-16T09:46:27;23.00;99.90
12893;DHT22;6514;48.606;9.222;2022-10-16T09:48:56;22.90;99.90
12893;DHT22;6514;48.606;9.222;2022-10-16T09:51:26;22.70;99.90
12893;DHT22;6514;48.606;9.222;2022-10-16T09:53:59;22.50;99.90
12893;DHT22;6514;48.606;9.222;2022-10-16T09:56:27;22.30;99.90
12893;DHT22;6514;48.606;9.222;2022-10-16T09:58:56;22.30;99.90
12893;DHT22;6514;48.606;9.222;2022-10-16T10:01:30;22.40;99.90
12893;DHT22;6514;48.606;9.222;2022-10-16T10:03:58;22.60;99.90
12893;DHT22;6514;48.606;9.222;2022-10-16T10:06:30;22.60;99.90
12893;DHT22;6514;48.606;9.222;2022-10-16T10:09:04;22.80;99.90
12893;DHT22;6514;48.606;9.222;2022-10-16T10:11:53;23.20;99.90
12893;DHT22;6514;48.606;9.222;2022-10-16T10:14:26;23.40;99.90
12893;DHT22;6514;48.606;9.222;2022-10-16T10:17:14;24.00;99.90
12893;DHT22;6514;48.606;9.222;2022-10-16T10:19:44;24.60;99.90
12893;DHT22;6514;48.606;9.222;2022-10-16T10:22:23;24.90;99.90
12893;DHT22;6514;48.606;9.222;2022-10-16T10:25:12;25.20;99.90
12893;DHT22;6514;48.606;9.222;2022-10-16T10:27:59;25.50;99.90
12893;DHT22;6514;48.606;9.222;2022-10-16T10:30:34;25.80;99.90
12893;DHT22;6514;48.606;9.222;2022-10-16T10:33:14;25.60;99.90
12893;DHT22;6514;48.606;9.222;2022-10-16T10:35:47;25.20;99.90
12893;DHT22;6514;48.606;9.222;2022-10-16T10:38:27;24.90;99.90
12893;DHT22;6514;48.606;9.222;2022-10-16T10:41:07;24.80;99.90
12893;DHT22;6514;48.606;9.222;2022-10-16T10:43:51;24.70;99.90
12893;DHT22;6514;48.606;9.222;2022-10-16T10:46:28;24.80;99.90
12893;DHT22;6514;48.606;9.222;2022-10-16T10:49:24;25.20;99.90
12893;DHT22;6514;48.606;9.222;2022-10-16T10:52:05;25.60;99.90
12893;DHT22;6514;48.606;9.222;2022-10-16T10:54:41;26.00;99.90
12893;DHT22;6514;48.606;9.222;2022-10-16T10:57:19;26.30;99.90
12893;DHT22;6514;48.606;9.222;2022-10-16T11:00:06;26.70;99.90
12893;DHT22;6514;48.606;9.222;2022-10-16T11:02:41;27.00;99.90
12893;DHT22;6514;48.606;9.222;2022-10-16T11:05:37;27.10;99.90
12893;DHT22;6514;48.606;9.222;2022-10-16T11:08:14;27.10;99.90
12893;DHT22;6514;48.606;9.222;2022-10-16T11:10:50;27.10;99.90
12893;DHT22;6514;48.606;9.222;2022-10-16T11:13:30;27.20;99.90
12893;DHT22;6514;48.606;9.222;2022-10-16T11:15:59;26.90;99.90
12893;DHT22;6514;48.606;9.222;2022-10-16T11:18:32;26.60;99.90
12893;DHT22;6514;48.606;9.222;2022-10-16T11:21:05;26.20;99.90
12893;DHT22;6514;48.606;9.222;2022-10-16T11:23:39;26.00;99.90
12893;DHT22;6514;48.606;9.222;2022-10-16T11:26:11;26.10;99.90
12893;DHT22;6514;48.606;9.222;2022-10-16T11:28:44;26.40;99.90
12893;DHT22;6514;48.606;9.222;2022-10-16T11:31:16;26.70;99.90
12893;DHT22;6514;48.606;9.222;2022-10-16T11:33:47;27.00;99.90
12893;DHT22;6514;48.606;9.222;2022-10-16T11:36:21;27.00;99.90
12893;DHT22;6514;48.606;9.222;2022-10-16T11:38:53;27.10;99.90
12893;DHT22;6514;48.606;9.222;2022-10-16T11:41:28;27.20;99.90
12893;DHT22;6514;48.606;9.222;2022-10-16T11:44:20;27.40;99.90
12893;DHT22;6514;48.606;9.222;2022-10-16T11:46:58;27.50;99.90
12893;DHT22;6514;48.606;9.222;2022-10-16T11:49:31;27.50;99.90
12893;DHT22;6514;48.606;9.222;2022-10-16T11:52:06;27.60;99.90
12893;DHT22;6514;48.606;9.222;2022-10-16T11:54:39;27.60;99.90
12893;DHT22;6514;48.606;9.222;2022-10-16T11:57:11;27.70;99.90
12893;DHT22;6514;48.606;9.222;2022-10-16T11:59:43;27.60;99.90
12893;DHT22;6514;48.606;9.222;2022-10-16T12:02:37;27.40;99.90
12893;DHT22;6514;48.606;9.222;2022-10-16T12:05:18;27.50;99.90
12893;DHT22;6514;48.606;9.222;2022-10-16T12:07:55;27.40;99.90
12893;DHT22;6514;48.606;9.222;2022-10-16T12:10:25;27.40;99.90
12893;DHT22;6514;48.606;9.222;2022-10-16T12:12:52;27.30;99.90
12893;DHT22;6514;48.606;9.222;2022-10-16T12:15:22;27.30;99.90
12893;DHT22;6514;48.606;9.222;2022-10-16T12:17:50;27.30;99.90
12893;DHT22;6514;48.606;9.222;2022-10-16T12:20:26;27.30;99.90
12893;DHT22;6514;48.606;9.222;2022-10-16T12:22:58;27.20;99.90
12893;DHT22;6514;48.606;9.222;2022-10-16T12:25:28;27.00;99.90
12893;DHT22;6514;48.606;9.222;2022-10-16T12:28:01;26.90;99.90
12893;DHT22;6514;48.606;9.222;2022-10-16T12:30:31;26.90;99.90
12893;DHT22;6514;48.606;9.222;2022-10-16T12:33:00;26.90;99.90
12893;DHT22;6514;48.606;9.222;2022-10-16T12:35:32;26.90;99.90
12893;DHT22;6514;48.606;9.222;2022-10-16T12:38:16;26.80;99.90
12893;DHT22;6514;48.606;9.222;2022-10-16T12:40:44;26.70;99.90
12893;DHT22;6514;48.606;9.222;2022-10-16T12:43:34;26.40;99.90
12893;DHT22;6514;48.606;9.222;2022-10-16T12:46:04;26.10;99.90
12893;DHT22;6514;48.606;9.222;2022-10-16T12:48:31;26.20;99.90
12893;DHT22;6514;48.606;9.222;2022-10-16T12:51:10;26.30;99.90
12893;DHT22;6514;48.606;9.222;2022-10-16T12:53:38;26.30;99.90
12893;DHT22;6514;48.606;9.222;2022-10-16T12:56:14;26.50;99.90
12893;DHT22;6514;48.606;9.222;2022-10-16T12:58:58;26.80;99.90
12893;DHT22;6514;48.606;9.222;2022-10-16T13:01:41;27.20;99.90
12893;DHT22;6514;48.606;9.222;2022-10-16T13:10:11;27.30;99.90
12893;DHT22;6514;48.606;9.222;2022-10-16T13:12:53;27.50;99.90
12893;DHT22;6514;48.606;9.222;2022-10-16T13:15:37;27.50;99.90
12893;DHT22;6514;48.606;9.222;2022-10-16T13:18:13;27.70;99.90
12893;DHT22;6514;48.606;9.222;2022-10-16T13:20:52;27.70;99.90
12893;DHT22;6514;48.606;9.222;2022-10-16T13:23:24;27.70;99.90
12893;DHT22;6514;48.606;9.222;2022-10-16T13:26:09;27.50;99.90
12893;DHT22;6514;48.606;9.222;2022-10-16T13:28:41;27.20;99.90
12893;DHT22;6514;48.606;9.222;2022-10-16T13:31:15;26.70;99.90
12893;DHT22;6514;48.606;9.222;2022-10-16T13:33:46;26.30;99.90
12893;DHT22;6514;48.606;9.222;2022-10-16T13:36:21;25.90;99.90
12893;DHT22;6514;48.606;9.222;2022-10-16T13:38:48;25.50;99.90
12893;DHT22;6514;48.606;9.222;2022-10-16T13:41:17;25.20;99.90
12893;DHT22;6514;48.606;9.222;2022-10-16T13:43:48;25.00;99.90
12893;DHT22;6514;48.606;9.222;2022-10-16T13:46:17;25.00;99.90
12893;DHT22;6514;48.606;9.222;2022-10-16T13:48:55;25.10;99.90
12893;DHT22;6514;48.606;9.222;2022-10-16T13:51:22;25.10;99.90
12893;DHT22;6514;48.606;9.222;2022-10-16T13:53:49;25.10;99.90
12893;DHT22;6514;48.606;9.222;2022-10-16T13:56:19;24.90;99.90
12893;DHT22;6514;48.606;9.222;2022-10-16T13:58:58;24.70;99.90
12893;DHT22;6514;48.606;9.222;2022-10-16T14:01:27;24.60;99.90
12893;DHT22;6514;48.606;9.222;2022-10-16T14:04:02;24.40;99.90
12893;DHT22;6514;48.606;9.222;2022-10-16T14:06:29;24.30;99.90
12893;DHT22;6514;48.606;9.222;2022-10-16T14:09:02;24.20;99.90
12893;DHT22;6514;48.606;9.222;2022-10-16T14:11:33;24.20;99.90
12893;DHT22;6514;48.606;9.222;2022-10-16T14:14:02;24.10;99.90
12893;DHT22;6514;48.606;9.222;2022-10-16T14:16:30;24.00;99.90
12893;DHT22;6514;48.606;9.222;2022-10-16T14:19:02;24.00;99.90
12893;DHT22;6514;48.606;9.222;2022-10-16T14:21:29;24.00;99.90
12893;DHT22;6514;48.606;9.222;2022-10-16T14:23:57;24.00;99.90
12893;DHT22;6514;48.606;9.222;2022-10-16T14:26:27;24.00;99.90
12893;DHT22;6514;48.606;9.222;2022-10-16T14:29:11;24.00;99.90
12893;DHT22;6514;48.606;9.222;2022-10-16T14:31:39;23.90;99.90
12893;DHT22;6514;48.606;9.222;2022-10-16T14:34:28;23.90;99.90
12893;DHT22;6514;48.606;9.222;2022-10-16T14:36:56;23.80;99.90
12893;DHT22;6514;48.606;9.222;2022-10-16T14:39:24;23.80;99.90
12893;DHT22;6514;48.606;9.222;2022-10-16T14:41:54;23.80;99.90
12893;DHT22;6514;48.606;9.222;2022-10-16T14:44:28;23.70;99.90
12893;DHT22;6514;48.606;9.222;2022-10-16T14:46:56;23.70;99.90
12893;DHT22;6514;48.606;9.222;2022-10-16T14:49:25;23.70;99.90
12893;DHT22;6514;48.606;9.222;2022-10-16T14:51:53;23.80;99.90
12893;DHT22;6514;48.606;9.222;2022-10-16T14:54:20;23.90;99.90
12893;DHT22;6514;48.606;9.222;2022-10-16T14:56:49;23.90;99.90
12893;DHT22;6514;48.606;9.222;2022-10-16T14:59:19;23.90;99.90
12893;DHT22;6514;48.606;9.222;2022-10-16T15:01:48;23.80;99.90
12893;DHT22;6514;48.606;9.222;2022-10-16T15:04:15;23.70;99.90
12893;DHT22;6514;48.606;9.222;2022-10-16T15:06:43;23.60;99.90
12893;DHT22;6514;48.606;9.222;2022-10-16T15:09:10;23.60;99.90
12893;DHT22;6514;48.606;9.222;2022-10-16T15:11:37;23.50;99.90
12893;DHT22;6514;48.606;9.222;2022-10-16T15:14:04;23.40;99.90
12893;DHT22;6514;48.606;9.222;2022-10-16T15:16:31;23.20;99.90
12893;DHT22;6514;48.606;9.222;2022-10-16T15:19:00;23.10;99.90
12893;DHT22;6514;48.606;9.222;2022-10-16T15:21:28;23.00;99.90
12893;DHT22;6514;48.606;9.222;2022-10-16T15:23:56;22.80;99.90
12893;DHT22;6514;48.606;9.222;2022-10-16T15:26:23;22.70;99.90
12893;DHT22;6514;48.606;9.222;2022-10-16T15:28:50;22.50;99.90
12893;DHT22;6514;48.606;9.222;2022-10-16T15:31:17;22.40;99.90
12893;DHT22;6514;48.606;9.222;2022-10-16T15:33:45;22.30;99.90
12893;DHT22;6514;48.606;9.222;2022-10-16T15:36:24;22.30;99.90
12893;DHT22;6514;48.606;9.222;2022-10-16T15:38:51;22.30;99.90
12893;DHT22;6514;48.606;9.222;2022-10-16T15:41:19;22.10;99.90
12893;DHT22;6514;48.606;9.222;2022-10-16T15:43:48;22.00;99.90
12893;DHT22;6514;48.606;9.222;2022-10-16T15:46:17;21.80;99.90
12893;DHT22;6514;48.606;9.222;2022-10-16T15:48:44;21.80;99.90
12893;DHT22;6514;48.606;9.222;2022-10-16T15:51:11;21.60;99.90
12893;DHT22;6514;48.606;9.222;2022-10-16T15:53:39;21.50;99.90
12893;DHT22;6514;48.606;9.222;2022-10-16T15:56:07;21.30;99.90
12893;DHT22;6514;48.606;9.222;2022-10-16T15:58:34;21.20;99.90
12893;DHT22;6514;48.606;9.222;2022-10-16T16:01:02;21.10;99.90
12893;DHT22;6514;48.606;9.222;2022-10-16T16:03:29;21.00;99.90
12893;DHT22;6514;48.606;9.222;2022-10-16T16:05:57;20.80;99.90
12893;DHT22;6514;48.606;9.222;2022-10-16T16:08:24;20.70;99.90
12893;DHT22;6514;48.606;9.222;2022-10-16T16:11:03;20.60;99.90
12893;DHT22;6514;48.606;9.222;2022-10-16T16:13:30;20.50;99.90
12893;DHT22;6514;48.606;9.222;2022-10-16T16:15:57;20.40;99.90